createdAt,value
2023-06-25T00:01:36.402Z,18.86
2023-06-25T00:04:04.678Z,18.84
2023-06-25T00:06:32.456Z,18.86
2023-06-25T00:09:00.111Z,18.75
2023-06-25T00:11:27.727Z,18.75
2023-06-25T00:13:55.392Z,18.76
2023-06-25T00:16:26.228Z,18.70
2023-06-25T00:18:53.900Z,18.59
2023-06-25T00:21:21.518Z,18.74
2023-06-25T00:23:49.152Z,18.78
2023-06-25T00:26:17.037Z,18.90
2023-06-25T00:28:45.691Z,18.93
2023-06-25T00:31:14.454Z,18.92
2023-06-25T00:33:44.592Z,18.91
2023-06-25T00:36:12.229Z,18.89
2023-06-25T00:38:41.563Z,18.86
2023-06-25T00:41:10.614Z,18.86
2023-06-25T00:43:42.490Z,18.85
2023-06-25T00:46:13.724Z,18.87
2023-06-25T00:48:47.361Z,18.91
2023-06-25T00:51:17.823Z,18.77
2023-06-25T00:53:46.527Z,18.72
2023-06-25T00:56:14.629Z,18.67
2023-06-25T00:58:44.540Z,18.65
2023-06-25T01:01:22.132Z,18.70
2023-06-25T01:03:56.115Z,18.68
2023-06-25T01:06:31.466Z,18.68
2023-06-25T01:09:00.691Z,18.67
2023-06-25T01:11:29.360Z,18.70
2023-06-25T01:13:57.282Z,18.70
2023-06-25T01:16:25.470Z,18.69
2023-06-25T01:21:28.632Z,18.68
2023-06-25T01:23:58.260Z,18.65
2023-06-25T01:26:26.000Z,18.62
2023-06-25T01:28:56.863Z,18.61
2023-06-25T01:31:29.754Z,18.60
2023-06-25T01:33:57.384Z,18.57
2023-06-25T01:36:25.165Z,18.52
2023-06-25T01:38:53.384Z,18.55
2023-06-25T01:41:22.492Z,18.55
2023-06-25T01:43:50.218Z,18.54
2023-06-25T01:46:17.926Z,18.51
2023-06-25T01:48:45.706Z,18.51
2023-06-25T01:51:13.358Z,18.47
2023-06-25T01:53:41.065Z,18.32
2023-06-25T01:56:08.665Z,18.35
2023-06-25T01:58:37.705Z,18.28
2023-06-25T02:01:05.398Z,18.24
2023-06-25T02:03:33.201Z,18.29
2023-06-25T02:06:01.205Z,18.22
2023-06-25T02:08:28.845Z,18.21
2023-06-25T02:10:56.938Z,18.17
2023-06-25T02:13:24.565Z,18.23
2023-06-25T02:15:53.816Z,18.23
2023-06-25T02:18:21.597Z,18.23
2023-06-25T02:20:49.219Z,18.21
2023-06-25T02:23:16.942Z,18.23
2023-06-25T02:25:44.623Z,18.30
2023-06-25T02:28:12.269Z,18.24
2023-06-25T02:30:40.029Z,18.19
2023-06-25T02:33:09.114Z,18.23
2023-06-25T02:35:37.185Z,18.17
2023-06-25T02:38:05.275Z,18.20
2023-06-25T02:40:32.932Z,18.15
2023-06-25T02:43:00.592Z,18.08
2023-06-25T02:45:28.284Z,18.07
2023-06-25T02:47:55.983Z,17.96
2023-06-25T02:50:25.045Z,17.96
2023-06-25T02:52:52.756Z,17.93
2023-06-25T02:55:21.354Z,17.92
2023-06-25T02:57:49.002Z,17.93
2023-06-25T03:00:17.319Z,17.92
2023-06-25T03:02:45.819Z,17.93
2023-06-25T03:05:13.768Z,17.97
2023-06-25T03:07:51.926Z,17.92
2023-06-25T03:10:21.067Z,17.84
2023-06-25T03:12:48.693Z,17.85
2023-06-25T03:15:18.340Z,17.88
2023-06-25T03:17:46.195Z,17.79
2023-06-25T03:20:15.043Z,17.74
2023-06-25T03:22:43.379Z,17.62
2023-06-25T03:25:12.714Z,17.62
2023-06-25T03:27:44.064Z,17.62
2023-06-25T03:30:12.261Z,17.63
2023-06-25T03:32:40.090Z,17.56
2023-06-25T03:35:08.350Z,17.50
2023-06-25T03:37:36.013Z,17.57
2023-06-25T03:40:05.174Z,17.64
2023-06-25T03:42:34.567Z,17.64
2023-06-25T03:45:02.562Z,17.65
2023-06-25T03:47:31.424Z,17.58
2023-06-25T03:49:59.339Z,17.52
2023-06-25T03:52:27.799Z,17.56
2023-06-25T03:54:55.456Z,17.55
2023-06-25T03:57:24.207Z,17.51
2023-06-25T03:59:53.221Z,17.34
2023-06-25T04:02:21.968Z,17.26
2023-06-25T04:04:49.655Z,17.22
2023-06-25T04:07:17.324Z,17.21
2023-06-25T04:09:45.645Z,17.33
2023-06-25T04:12:13.503Z,17.40
2023-06-25T04:14:41.313Z,17.45
2023-06-25T04:17:11.120Z,17.52
2023-06-25T04:19:39.660Z,17.50
2023-06-25T04:22:07.519Z,17.47
2023-06-25T04:24:35.374Z,17.51
2023-06-25T04:27:03.555Z,17.54
2023-06-25T04:29:31.379Z,17.59
2023-06-25T04:32:02.781Z,17.65
2023-06-25T04:34:32.843Z,17.56
2023-06-25T04:37:00.555Z,17.53
2023-06-25T04:39:28.548Z,17.47
2023-06-25T04:41:58.253Z,17.50
2023-06-25T04:44:26.604Z,17.55
2023-06-25T04:46:55.894Z,17.63
2023-06-25T04:49:24.264Z,17.73
2023-06-25T04:51:53.308Z,17.84
2023-06-25T04:54:20.952Z,17.89
2023-06-25T04:56:48.620Z,17.97
2023-06-25T04:59:16.254Z,18.07
2023-06-25T05:01:44.051Z,18.07
2023-06-25T05:04:11.684Z,18.10
2023-06-25T05:06:39.399Z,18.17
2023-06-25T05:09:08.392Z,18.28
2023-06-25T05:11:36.584Z,18.30
2023-06-25T05:14:04.130Z,18.34
2023-06-25T05:16:31.684Z,18.41
2023-06-25T05:18:59.481Z,18.46
2023-06-25T05:21:27.059Z,18.45
2023-06-25T05:23:59.625Z,18.46
2023-06-25T05:26:28.840Z,18.44
2023-06-25T05:28:57.292Z,18.47
2023-06-25T05:31:24.991Z,18.43
2023-06-25T05:33:52.737Z,18.54
2023-06-25T05:36:20.403Z,18.62
2023-06-25T05:38:49.922Z,18.72
2023-06-25T05:41:19.053Z,18.87
2023-06-25T05:43:48.098Z,18.97
2023-06-25T05:46:15.850Z,19.10
2023-06-25T05:48:43.534Z,19.14
2023-06-25T05:51:11.268Z,19.21
2023-06-25T05:53:41.149Z,19.27
2023-06-25T05:56:09.101Z,19.35
2023-06-25T05:58:37.605Z,19.45
2023-06-25T06:01:06.685Z,19.53
2023-06-25T06:03:34.425Z,19.69
2023-06-25T06:06:02.751Z,19.85
2023-06-25T06:08:30.509Z,19.97
2023-06-25T06:10:58.183Z,20.13
2023-06-25T06:13:25.827Z,20.25
2023-06-25T06:15:53.484Z,20.32
2023-06-25T06:18:22.500Z,20.36
2023-06-25T06:20:50.490Z,20.40
2023-06-25T06:23:18.180Z,20.45
2023-06-25T06:25:45.772Z,20.55
2023-06-25T06:28:13.352Z,20.66
2023-06-25T06:30:40.997Z,20.74
2023-06-25T06:33:08.673Z,20.76
2023-06-25T06:35:37.891Z,20.81
2023-06-25T06:38:05.713Z,20.92
2023-06-25T06:40:33.292Z,21.06
2023-06-25T06:43:00.866Z,21.14
2023-06-25T06:45:28.556Z,21.25
2023-06-25T06:47:56.216Z,21.33
2023-06-25T06:50:23.806Z,21.40
2023-06-25T06:52:52.706Z,21.52
2023-06-25T06:55:20.328Z,21.61
2023-06-25T06:57:48.771Z,21.76
2023-06-25T07:00:19.190Z,21.88
2023-06-25T07:02:46.933Z,21.98
2023-06-25T07:05:14.777Z,22.08
2023-06-25T07:07:42.732Z,22.21
2023-06-25T07:10:12.110Z,22.32
2023-06-25T07:12:39.770Z,22.44
2023-06-25T07:15:08.495Z,22.55
2023-06-25T07:17:36.306Z,22.64
2023-06-25T07:20:04.025Z,22.77
2023-06-25T07:22:33.995Z,22.87
2023-06-25T07:25:01.822Z,23.04
2023-06-25T07:27:30.796Z,23.13
2023-06-25T07:29:58.473Z,23.24
2023-06-25T07:32:26.079Z,23.40
2023-06-25T07:34:53.681Z,23.47
2023-06-25T07:37:21.297Z,23.60
2023-06-25T07:39:48.871Z,23.76
2023-06-25T07:42:16.524Z,23.95
2023-06-25T07:44:55.789Z,23.97
2023-06-25T07:47:24.429Z,24.06
2023-06-25T07:49:52.080Z,24.12
2023-06-25T07:52:19.817Z,24.17
2023-06-25T07:54:47.371Z,24.28
2023-06-25T07:57:15.628Z,24.36
2023-06-25T07:59:52.080Z,24.51
2023-06-25T08:02:21.604Z,24.64
2023-06-25T08:04:50.277Z,24.73
2023-06-25T08:07:18.080Z,24.76
2023-06-25T08:09:46.184Z,24.81
2023-06-25T08:12:15.647Z,24.87
2023-06-25T08:14:44.732Z,24.91
2023-06-25T08:17:12.395Z,24.96
2023-06-25T08:19:40.041Z,25.04
2023-06-25T08:22:07.890Z,25.11
2023-06-25T08:24:35.503Z,25.18
2023-06-25T08:27:03.101Z,25.26
2023-06-25T08:29:31.977Z,25.40
2023-06-25T08:32:00.959Z,25.42
2023-06-25T08:34:28.740Z,25.46
2023-06-25T08:36:56.509Z,25.66
2023-06-25T08:39:24.352Z,25.71
2023-06-25T08:41:52.235Z,25.73
2023-06-25T08:44:19.959Z,25.74
2023-06-25T08:46:49.419Z,25.79
2023-06-25T08:49:18.781Z,25.89
2023-06-25T08:51:46.523Z,26.00
2023-06-25T08:54:14.191Z,26.11
2023-06-25T08:56:42.003Z,26.12
2023-06-25T08:59:09.737Z,26.06
2023-06-25T09:01:37.436Z,26.11
2023-06-25T09:04:05.275Z,26.14
2023-06-25T09:06:54.287Z,26.15
2023-06-25T09:09:28.312Z,26.20
2023-06-25T09:11:55.953Z,26.12
2023-06-25T09:14:23.828Z,26.12
2023-06-25T09:16:52.211Z,26.21
2023-06-25T09:19:20.412Z,26.22
2023-06-25T09:21:49.752Z,26.44
2023-06-25T09:24:18.982Z,26.45
2023-06-25T09:26:47.964Z,26.47
2023-06-25T09:29:16.978Z,26.55
2023-06-25T09:31:45.155Z,26.65
2023-06-25T09:34:14.992Z,26.82
2023-06-25T09:36:42.712Z,26.77
2023-06-25T09:39:13.685Z,26.74
2023-06-25T09:41:43.234Z,26.80
2023-06-25T09:44:11.940Z,26.93
2023-06-25T09:46:41.582Z,26.81
2023-06-25T09:49:09.466Z,26.86
2023-06-25T09:51:44.413Z,26.93
2023-06-25T09:54:17.062Z,26.96
2023-06-25T09:56:46.832Z,27.02
2023-06-25T09:59:14.555Z,27.05
2023-06-25T10:01:42.614Z,27.21
2023-06-25T10:04:10.741Z,27.31
2023-06-25T10:06:39.584Z,27.53
2023-06-25T10:09:07.886Z,27.55
2023-06-25T10:11:37.073Z,27.60
2023-06-25T10:14:06.494Z,27.59
2023-06-25T10:19:05.555Z,27.77
2023-06-25T10:21:33.373Z,27.93
2023-06-25T10:24:03.081Z,28.01
2023-06-25T10:26:32.332Z,28.11
2023-06-25T10:29:03.283Z,28.20
2023-06-25T10:31:39.252Z,28.28
2023-06-25T10:34:08.440Z,28.40
2023-06-25T10:36:36.242Z,28.33
2023-06-25T10:39:04.761Z,28.41
2023-06-25T10:41:33.785Z,28.47
2023-06-25T10:44:02.760Z,28.42
2023-06-25T10:46:34.390Z,28.59
2023-06-25T10:49:05.063Z,28.71
2023-06-25T10:51:35.056Z,28.78
2023-06-25T10:54:02.645Z,28.88
2023-06-25T10:56:30.275Z,28.96
2023-06-25T10:58:58.421Z,28.98
2023-06-25T11:01:34.882Z,29.08
2023-06-25T11:04:02.926Z,29.20
2023-06-25T11:06:38.247Z,29.22
2023-06-25T11:09:05.988Z,29.27
2023-06-25T11:11:33.663Z,29.48
2023-06-25T11:14:02.310Z,29.70
2023-06-25T11:16:31.297Z,29.63
2023-06-25T11:18:58.911Z,29.82
2023-06-25T11:21:26.487Z,30.01
2023-06-25T11:23:54.144Z,30.03
2023-06-25T11:26:22.816Z,30.05
2023-06-25T11:28:50.873Z,30.06
2023-06-25T11:31:18.541Z,30.19
2023-06-25T11:33:56.663Z,30.33
2023-06-25T11:36:24.960Z,30.28
2023-06-25T11:38:52.598Z,30.30
2023-06-25T11:41:28.371Z,30.31
2023-06-25T11:43:55.942Z,30.23
2023-06-25T11:46:23.594Z,30.51
2023-06-25T11:48:52.330Z,30.65
2023-06-25T11:51:21.349Z,30.73
2023-06-25T11:53:49.030Z,30.92
2023-06-25T11:56:16.685Z,31.17
2023-06-25T11:58:44.215Z,31.42
2023-06-25T12:01:12.883Z,31.49
2023-06-25T12:03:40.525Z,31.84
2023-06-25T12:06:08.637Z,32.08
2023-06-25T12:08:37.609Z,32.31
2023-06-25T12:11:05.272Z,32.73
2023-06-25T12:13:33.042Z,32.95
2023-06-25T12:16:00.619Z,33.23
2023-06-25T12:18:28.307Z,33.02
2023-06-25T12:20:55.859Z,32.97
2023-06-25T12:23:23.477Z,33.07
2023-06-25T12:25:52.407Z,33.52
2023-06-25T12:28:20.008Z,33.28
2023-06-25T12:30:47.726Z,33.40
2023-06-25T12:33:15.502Z,33.90
2023-06-25T12:35:43.205Z,34.21
2023-06-25T12:38:10.831Z,34.31
2023-06-25T12:40:38.445Z,34.66
2023-06-25T12:43:07.392Z,34.80
2023-06-25T12:45:35.118Z,35.33
2023-06-25T12:48:02.899Z,35.83
2023-06-25T12:50:30.611Z,36.06
2023-06-25T12:52:58.191Z,35.75
2023-06-25T12:55:25.825Z,36.38
2023-06-25T12:57:53.499Z,36.50
2023-06-25T13:00:33.840Z,36.81
2023-06-25T13:03:08.475Z,37.58
2023-06-25T13:05:36.318Z,38.29
2023-06-25T13:08:04.150Z,39.22
2023-06-25T13:10:31.799Z,38.82
2023-06-25T13:12:59.524Z,39.57
2023-06-25T13:15:29.065Z,40.13
2023-06-25T13:17:56.893Z,40.12
2023-06-25T13:20:24.564Z,40.27
2023-06-25T13:22:52.534Z,40.66
2023-06-25T13:25:20.176Z,41.32
2023-06-25T13:27:47.861Z,41.63
2023-06-25T13:30:15.521Z,41.43
2023-06-25T13:32:44.542Z,41.68
2023-06-25T13:35:12.218Z,41.69
2023-06-25T13:37:39.845Z,41.37
2023-06-25T13:40:08.845Z,41.24
2023-06-25T13:42:36.613Z,41.43
2023-06-25T13:45:04.924Z,41.02
2023-06-25T13:47:32.594Z,40.89
2023-06-25T13:50:02.017Z,40.82
2023-06-25T13:52:29.796Z,40.62
2023-06-25T13:54:57.507Z,40.51
2023-06-25T13:57:25.115Z,41.08
2023-06-25T13:59:52.727Z,41.33
2023-06-25T14:02:20.442Z,41.66
2023-06-25T14:04:48.377Z,41.53
2023-06-25T14:07:17.670Z,41.92
2023-06-25T14:09:45.329Z,42.49
2023-06-25T14:12:13.001Z,42.82
2023-06-25T14:14:40.928Z,42.22
2023-06-25T14:17:08.593Z,42.15
2023-06-25T14:19:36.307Z,42.77
2023-06-25T14:22:04.189Z,42.65
2023-06-25T14:24:33.157Z,43.54
2023-06-25T14:27:00.824Z,43.40
2023-06-25T14:29:28.552Z,44.03
2023-06-25T14:31:56.194Z,44.75
2023-06-25T14:34:23.957Z,45.21
2023-06-25T14:36:51.523Z,45.66
2023-06-25T14:39:19.193Z,46.00
2023-06-25T14:41:48.075Z,46.43
2023-06-25T14:44:15.693Z,46.85
2023-06-25T14:46:43.307Z,47.37
2023-06-25T14:49:10.948Z,47.65
2023-06-25T14:51:38.937Z,47.94
2023-06-25T14:54:06.565Z,48.56
2023-06-25T14:56:34.719Z,48.15
2023-06-25T14:59:03.947Z,48.83
2023-06-25T15:01:31.588Z,48.82
2023-06-25T15:03:59.508Z,49.45
2023-06-25T15:06:35.591Z,50.56
2023-06-25T15:09:04.101Z,50.42
2023-06-25T15:11:31.785Z,50.67
2023-06-25T15:14:00.600Z,49.68
2023-06-25T15:16:30.059Z,50.72
2023-06-25T15:18:57.771Z,51.34
2023-06-25T15:21:25.427Z,51.67
2023-06-25T15:23:53.143Z,51.57
2023-06-25T15:26:20.789Z,52.58
2023-06-25T15:28:48.516Z,53.05
2023-06-25T15:31:16.261Z,53.19
2023-06-25T15:33:45.260Z,53.67
2023-06-25T15:36:13.512Z,52.96
2023-06-25T15:38:42.024Z,53.34
2023-06-25T15:41:09.824Z,53.44
2023-06-25T15:43:37.476Z,53.26
2023-06-25T15:46:05.226Z,53.84
2023-06-25T15:48:33.546Z,53.63
2023-06-25T15:51:02.562Z,54.25
2023-06-25T15:53:30.216Z,54.45
2023-06-25T15:55:57.984Z,54.88
2023-06-25T15:58:25.648Z,55.21
2023-06-25T16:00:53.320Z,55.07
2023-06-25T16:03:21.157Z,55.23
2023-06-25T16:05:48.866Z,54.25
2023-06-25T16:08:17.895Z,54.87
2023-06-25T16:10:45.509Z,54.86
2023-06-25T16:13:13.107Z,54.44
2023-06-25T16:15:41.032Z,54.98
2023-06-25T16:18:08.783Z,54.94
2023-06-25T16:20:36.454Z,54.70
2023-06-25T16:23:04.215Z,54.97
2023-06-25T16:25:33.448Z,55.32
2023-06-25T16:28:01.160Z,55.49
2023-06-25T16:30:29.007Z,54.98
2023-06-25T16:32:57.188Z,55.32
2023-06-25T16:35:24.961Z,55.39
2023-06-25T16:37:57.533Z,54.98
2023-06-25T16:40:28.952Z,55.05
2023-06-25T16:42:58.101Z,54.97
2023-06-25T16:45:25.739Z,55.10
2023-06-25T16:47:53.376Z,54.96
2023-06-25T16:50:21.043Z,55.07
2023-06-25T16:52:48.660Z,54.90
2023-06-25T16:55:16.292Z,53.48
2023-06-25T16:57:44.090Z,54.01
2023-06-25T17:00:14.249Z,53.70
2023-06-25T17:02:44.417Z,53.30
2023-06-25T17:05:14.670Z,53.38
2023-06-25T17:07:42.376Z,53.77
2023-06-25T17:10:10.455Z,54.15
2023-06-25T17:12:38.143Z,54.11
2023-06-25T17:15:06.195Z,54.08
2023-06-25T17:17:35.133Z,53.92
2023-06-25T17:20:03.016Z,53.78
2023-06-25T17:22:30.653Z,53.84
2023-06-25T17:24:58.274Z,53.91
2023-06-25T17:27:25.928Z,54.06
2023-06-25T17:29:54.084Z,53.83
2023-06-25T17:32:21.948Z,54.11
2023-06-25T17:34:50.981Z,54.51
2023-06-25T17:37:18.574Z,55.02
2023-06-25T17:39:46.312Z,55.29
2023-06-25T17:42:14.120Z,55.78
2023-06-25T17:44:41.782Z,55.56
2023-06-25T17:47:09.541Z,55.38
2023-06-25T17:49:37.176Z,54.82
2023-06-25T17:52:07.477Z,53.99
2023-06-25T17:54:35.140Z,53.61
2023-06-25T17:57:03.329Z,53.12
2023-06-25T17:59:31.087Z,52.51
2023-06-25T18:01:58.808Z,52.13
2023-06-25T18:04:26.498Z,51.81
2023-06-25T18:06:54.151Z,51.40
2023-06-25T18:09:23.132Z,50.93
2023-06-25T18:11:50.794Z,50.15
2023-06-25T18:14:18.457Z,49.92
2023-06-25T18:16:46.045Z,49.57
2023-06-25T18:19:13.640Z,49.18
2023-06-25T18:21:41.250Z,48.47
2023-06-25T18:24:08.954Z,47.59
2023-06-25T18:26:38.670Z,46.38
2023-06-25T18:29:06.430Z,45.14
2023-06-25T18:31:34.690Z,43.64
2023-06-25T18:34:02.882Z,42.01
2023-06-25T18:36:30.656Z,40.73
2023-06-25T18:38:58.288Z,39.40
2023-06-25T18:41:25.929Z,38.15
2023-06-25T18:43:54.928Z,37.10
2023-06-25T18:46:22.646Z,36.26
2023-06-25T18:48:50.326Z,35.55
2023-06-25T18:51:18.044Z,34.95
2023-06-25T18:53:45.712Z,34.32
2023-06-25T18:56:13.361Z,33.70
2023-06-25T18:58:41.470Z,33.26
2023-06-25T19:01:10.639Z,32.78
2023-06-25T19:03:38.603Z,32.30
2023-06-25T19:06:06.827Z,31.83
2023-06-25T19:08:34.479Z,31.28
2023-06-25T19:11:02.144Z,30.82
2023-06-25T19:13:29.754Z,30.53
2023-06-25T19:15:57.443Z,30.20
2023-06-25T19:18:26.423Z,30.06
2023-06-25T19:20:54.063Z,29.77
2023-06-25T19:25:53.513Z,29.36
2023-06-25T19:28:21.584Z,29.09
2023-06-25T19:30:49.348Z,28.86
2023-06-25T19:33:17.192Z,28.61
2023-06-25T19:35:46.532Z,28.38
2023-06-25T19:38:14.163Z,28.13
2023-06-25T19:40:41.853Z,27.95
2023-06-25T19:43:09.546Z,27.64
2023-06-25T19:45:37.197Z,27.46
2023-06-25T19:48:05.156Z,27.30
2023-06-25T19:50:32.856Z,27.07
2023-06-25T19:53:01.881Z,26.83
2023-06-25T19:55:29.548Z,26.67
2023-06-25T19:57:57.184Z,26.48
2023-06-25T20:00:24.784Z,26.31
2023-06-25T20:02:52.446Z,26.07
2023-06-25T20:05:20.482Z,25.94
2023-06-25T20:07:49.385Z,25.75
2023-06-25T20:10:19.292Z,25.58
2023-06-25T20:12:49.633Z,25.44
2023-06-25T20:15:18.488Z,25.29
2023-06-25T20:17:46.282Z,25.12
2023-06-25T20:20:14.278Z,25.01
2023-06-25T20:22:41.940Z,24.91
2023-06-25T20:25:10.383Z,24.72
2023-06-25T20:27:39.424Z,24.52
2023-06-25T20:30:08.496Z,24.43
2023-06-25T20:32:36.149Z,24.33
2023-06-25T20:35:03.880Z,24.24
2023-06-25T20:37:31.586Z,24.10
2023-06-25T20:39:59.391Z,24.01
2023-06-25T20:42:27.069Z,23.90
2023-06-25T20:44:56.264Z,23.76
2023-06-25T20:47:23.923Z,23.67
2023-06-25T20:49:51.789Z,23.62
2023-06-25T20:52:19.413Z,23.56
2023-06-25T20:54:49.639Z,23.43
2023-06-25T20:57:17.321Z,23.37
2023-06-25T20:59:45.723Z,23.29
2023-06-25T21:02:14.845Z,23.21
2023-06-25T21:04:42.535Z,23.16
2023-06-25T21:11:22.579Z,23.01
2023-06-25T21:13:50.227Z,22.96
2023-06-25T21:16:17.896Z,22.90
2023-06-25T21:18:46.937Z,22.83
2023-06-25T21:21:14.637Z,22.75
2023-06-25T21:23:42.276Z,22.67
2023-06-25T21:26:09.861Z,22.55
2023-06-25T21:28:38.126Z,22.46
2023-06-25T21:31:05.794Z,22.33
2023-06-25T21:33:33.488Z,22.26
2023-06-25T21:36:02.426Z,22.18
2023-06-25T21:38:30.028Z,22.12
2023-06-25T21:40:57.861Z,22.00
2023-06-25T21:43:25.408Z,21.95
2023-06-25T21:45:53.110Z,21.89
2023-06-25T21:48:20.658Z,21.80
2023-06-25T21:50:48.318Z,21.81
2023-06-25T21:53:20.275Z,21.77
2023-06-25T21:55:47.957Z,21.70
2023-06-25T21:58:15.695Z,21.61
2023-06-25T22:00:43.339Z,21.59
2023-06-25T22:03:11.104Z,21.56
2023-06-25T22:05:38.709Z,21.49
2023-06-25T22:08:06.626Z,21.44
2023-06-25T22:10:35.783Z,21.38
2023-06-25T22:13:03.536Z,21.35
2023-06-25T22:15:31.193Z,21.30
2023-06-25T22:17:59.191Z,21.30
2023-06-25T22:20:30.997Z,21.27
2023-06-25T22:22:58.700Z,21.20
2023-06-25T22:25:26.280Z,21.16
2023-06-25T22:27:55.826Z,21.10
2023-06-25T22:30:23.495Z,21.03
2023-06-25T22:32:51.140Z,21.00
2023-06-25T22:35:18.839Z,20.97
2023-06-25T22:37:46.507Z,20.92
2023-06-25T22:40:14.232Z,20.85
2023-06-25T22:42:41.927Z,20.79
2023-06-25T22:45:11.143Z,20.76
2023-06-25T22:47:40.389Z,20.72
2023-06-25T22:50:09.230Z,20.68
2023-06-25T22:52:36.978Z,20.59
2023-06-25T22:55:04.716Z,20.57
2023-06-25T22:57:32.272Z,20.62
2023-06-25T22:59:59.844Z,20.67
2023-06-25T23:02:28.909Z,20.70
2023-06-25T23:04:57.240Z,20.79
2023-06-25T23:07:24.981Z,20.85
2023-06-25T23:09:52.620Z,20.94
2023-06-25T23:12:20.270Z,20.94
2023-06-25T23:14:47.873Z,20.84
2023-06-25T23:17:15.606Z,20.73
2023-06-25T23:19:45.713Z,20.53
2023-06-25T23:22:14.595Z,20.49
2023-06-25T23:24:45.113Z,20.59
2023-06-25T23:27:13.520Z,20.58
2023-06-25T23:29:41.560Z,20.57
2023-06-25T23:32:11.839Z,20.53
2023-06-25T23:34:40.097Z,20.44
2023-06-25T23:37:09.048Z,20.52
2023-06-25T23:39:37.733Z,20.55
2023-06-25T23:42:05.950Z,20.66
2023-06-25T23:44:34.203Z,20.73
2023-06-25T23:47:01.847Z,20.69
2023-06-25T23:49:29.730Z,20.59
2023-06-25T23:51:57.281Z,20.65
2023-06-25T23:54:26.280Z,20.62
2023-06-25T23:56:53.875Z,20.59
2023-06-25T23:59:21.453Z,20.44
